sensor_id;sensor_type;location;lat;lon;timestamp;pressure;altitude;pressure_sealevel;temperature;humidity
72330;BME280;60660;52.076;5.110;2023-03-22T00:02:09;100981.44;;;8.27;37.19
72330;BME280;60660;52.076;5.110;2023-03-22T00:04:34;100979.08;;;8.05;37.72
72330;BME280;60660;52.076;5.110;2023-03-22T00:07:00;100971.22;;;8.60;37.44
72330;BME280;60660;52.076;5.110;2023-03-22T00:09:25;100971.72;;;8.02;38.39
72330;BME280;60660;52.076;5.110;2023-03-22T00:11:50;100968.96;;;8.29;37.80
72330;BME280;60660;52.076;5.110;2023-03-22T00:14:16;100960.37;;;8.12;37.85
72330;BME280;60660;52.076;5.110;2023-03-22T00:16:41;100962.86;;;7.88;38.79
72330;BME280;60660;52.076;5.110;2023-03-22T00:19:06;100955.89;;;8.03;38.67
72330;BME280;60660;52.076;5.110;2023-03-22T00:21:32;100959.05;;;8.07;38.37
72330;BME280;60660;52.076;5.110;2023-03-22T00:23:58;100962.57;;;8.02;37.85
72330;BME280;60660;52.076;5.110;2023-03-22T00:26:23;100961.82;;;8.31;37.47
72330;BME280;60660;52.076;5.110;2023-03-22T00:28:48;100958.76;;;9.35;36.17
72330;BME280;60660;52.076;5.110;2023-03-22T00:31:14;100958.00;;;9.20;36.08
72330;BME280;60660;52.076;5.110;2023-03-22T00:33:39;100955.54;;;8.89;36.33
72330;BME280;60660;52.076;5.110;2023-03-22T00:36:06;100952.52;;;9.01;36.39
72330;BME280;60660;52.076;5.110;2023-03-22T00:38:29;100948.52;;;7.63;37.69
72330;BME280;60660;52.076;5.110;2023-03-22T00:40:54;100945.90;;;8.40;37.33
72330;BME280;60660;52.076;5.110;2023-03-22T00:43:20;100940.36;;;8.16;37.51
72330;BME280;60660;52.076;5.110;2023-03-22T00:45:45;100935.67;;;7.20;38.51
72330;BME280;60660;52.076;5.110;2023-03-22T00:48:11;100935.53;;;6.85;40.33
72330;BME280;60660;52.076;5.110;2023-03-22T00:50:37;100928.31;;;7.04;39.77
72330;BME280;60660;52.076;5.110;2023-03-22T00:53:02;100925.94;;;6.78;39.79
72330;BME280;60660;52.076;5.110;2023-03-22T00:55:28;100916.72;;;8.40;38.13
72330;BME280;60660;52.076;5.110;2023-03-22T00:57:53;100917.70;;;7.90;37.86
72330;BME280;60660;52.076;5.110;2023-03-22T01:00:18;100911.68;;;7.94;38.05
72330;BME280;60660;52.076;5.110;2023-03-22T01:02:43;100904.25;;;7.95;37.91
72330;BME280;60660;52.076;5.110;2023-03-22T01:05:09;100906.76;;;8.24;37.82
72330;BME280;60660;52.076;5.110;2023-03-22T01:07:35;100900.14;;;8.33;37.69
72330;BME280;60660;52.076;5.110;2023-03-22T01:10:00;100888.05;;;7.90;38.56
72330;BME280;60660;52.076;5.110;2023-03-22T01:12:25;100884.15;;;7.08;38.73
72330;BME280;60660;52.076;5.110;2023-03-22T01:14:50;100880.21;;;7.67;38.58
72330;BME280;60660;52.076;5.110;2023-03-22T01:17:15;100874.00;;;7.49;38.32
72330;BME280;60660;52.076;5.110;2023-03-22T01:19:41;100873.48;;;7.40;38.41
72330;BME280;60660;52.076;5.110;2023-03-22T01:22:07;100871.41;;;7.55;38.03
72330;BME280;60660;52.076;5.110;2023-03-22T01:24:33;100865.44;;;7.94;37.32
72330;BME280;60660;52.076;5.110;2023-03-22T01:26:57;100860.90;;;8.26;36.89
72330;BME280;60660;52.076;5.110;2023-03-22T01:29:23;100858.25;;;8.23;37.62
72330;BME280;60660;52.076;5.110;2023-03-22T01:31:48;100850.78;;;7.59;38.28
72330;BME280;60660;52.076;5.110;2023-03-22T01:34:14;100847.48;;;7.94;38.04
72330;BME280;60660;52.076;5.110;2023-03-22T01:36:38;100845.19;;;6.89;39.46
72330;BME280;60660;52.076;5.110;2023-03-22T01:39:04;100838.61;;;6.45;40.88
72330;BME280;60660;52.076;5.110;2023-03-22T01:41:29;100832.47;;;6.94;40.15
72330;BME280;60660;52.076;5.110;2023-03-22T01:44:12;100828.48;;;6.56;40.04
72330;BME280;60660;52.076;5.110;2023-03-22T01:46:20;100824.60;;;6.46;40.01
72330;BME280;60660;52.076;5.110;2023-03-22T01:48:45;100815.66;;;7.20;39.78
72330;BME280;60660;52.076;5.110;2023-03-22T01:51:14;100806.36;;;7.57;38.75
72330;BME280;60660;52.076;5.110;2023-03-22T01:53:39;100801.87;;;6.96;39.57
72330;BME280;60660;52.076;5.110;2023-03-22T01:56:02;100799.55;;;7.76;38.49
72330;BME280;60660;52.076;5.110;2023-03-22T01:58:26;100804.91;;;7.12;40.13
72330;BME280;60660;52.076;5.110;2023-03-22T02:00:52;100797.76;;;6.82;40.57
72330;BME280;60660;52.076;5.110;2023-03-22T02:03:23;100791.34;;;7.66;39.09
72330;BME280;60660;52.076;5.110;2023-03-22T02:05:43;100791.72;;;6.92;40.06
72330;BME280;60660;52.076;5.110;2023-03-22T02:08:08;100785.05;;;7.35;39.85
72330;BME280;60660;52.076;5.110;2023-03-22T02:10:34;100783.63;;;6.04;42.49
72330;BME280;60660;52.076;5.110;2023-03-22T02:13:13;100779.00;;;6.09;42.51
72330;BME280;60660;52.076;5.110;2023-03-22T02:15:28;100775.52;;;7.16;41.54
72330;BME280;60660;52.076;5.110;2023-03-22T02:18:00;100768.40;;;6.55;42.33
72330;BME280;60660;52.076;5.110;2023-03-22T02:20:47;100764.18;;;6.15;43.36
72330;BME280;60660;52.076;5.110;2023-03-22T02:27:26;100751.26;;;5.61;44.74
72330;BME280;60660;52.076;5.110;2023-03-22T02:29:47;100753.19;;;5.68;44.57
72330;BME280;60660;52.076;5.110;2023-03-22T02:33:34;100744.31;;;6.25;43.85
72330;BME280;60660;52.076;5.110;2023-03-22T02:35:03;100745.49;;;5.41;44.79
72330;BME280;60660;52.076;5.110;2023-03-22T02:37:19;100742.62;;;5.85;44.78
72330;BME280;60660;52.076;5.110;2023-03-22T02:39:31;100750.79;;;5.83;45.45
72330;BME280;60660;52.076;5.110;2023-03-22T02:42:01;100744.87;;;5.98;46.16
72330;BME280;60660;52.076;5.110;2023-03-22T02:44:22;100743.46;;;6.57;45.77
72330;BME280;60660;52.076;5.110;2023-03-22T02:46:43;100739.37;;;6.39;45.18
72330;BME280;60660;52.076;5.110;2023-03-22T02:49:14;100735.23;;;6.87;43.86
72330;BME280;60660;52.076;5.110;2023-03-22T02:51:37;100732.71;;;6.41;44.12
72330;BME280;60660;52.076;5.110;2023-03-22T02:54:02;100729.43;;;6.68;43.59
72330;BME280;60660;52.076;5.110;2023-03-22T02:56:26;100727.42;;;7.34;43.36
72330;BME280;60660;52.076;5.110;2023-03-22T02:58:50;100722.38;;;7.05;43.87
72330;BME280;60660;52.076;5.110;2023-03-22T03:01:17;100726.46;;;7.71;42.98
72330;BME280;60660;52.076;5.110;2023-03-22T03:03:38;100720.38;;;8.07;41.67
72330;BME280;60660;52.076;5.110;2023-03-22T03:06:08;100719.87;;;7.63;42.55
72330;BME280;60660;52.076;5.110;2023-03-22T03:08:29;100723.96;;;7.71;41.97
72330;BME280;60660;52.076;5.110;2023-03-22T03:10:54;100723.48;;;8.20;41.77
72330;BME280;60660;52.076;5.110;2023-03-22T03:13:20;100726.43;;;7.81;42.42
72330;BME280;60660;52.076;5.110;2023-03-22T03:15:48;100722.52;;;7.12;44.40
72330;BME280;60660;52.076;5.110;2023-03-22T03:18:20;100720.60;;;6.29;45.12
72330;BME280;60660;52.076;5.110;2023-03-22T03:20:43;100720.33;;;7.71;42.30
72330;BME280;60660;52.076;5.110;2023-03-22T03:23:09;100717.78;;;8.03;41.83
72330;BME280;60660;52.076;5.110;2023-03-22T03:25:31;100717.37;;;7.33;42.89
72330;BME280;60660;52.076;5.110;2023-03-22T03:27:58;100722.11;;;7.60;42.96
72330;BME280;60660;52.076;5.110;2023-03-22T03:30:20;100719.18;;;7.14;43.81
72330;BME280;60660;52.076;5.110;2023-03-22T03:32:46;100718.70;;;7.92;42.56
72330;BME280;60660;52.076;5.110;2023-03-22T03:35:12;100713.75;;;8.57;40.54
72330;BME280;60660;52.076;5.110;2023-03-22T03:37:37;100710.44;;;8.12;41.05
72330;BME280;60660;52.076;5.110;2023-03-22T03:40:05;100712.28;;;8.41;40.86
72330;BME280;60660;52.076;5.110;2023-03-22T03:42:26;100709.94;;;8.42;41.54
72330;BME280;60660;52.076;5.110;2023-03-22T03:44:50;100709.68;;;8.15;41.06
72330;BME280;60660;52.076;5.110;2023-03-22T03:47:16;100708.02;;;8.65;40.40
72330;BME280;60660;52.076;5.110;2023-03-22T03:49:41;100714.24;;;8.26;40.96
72330;BME280;60660;52.076;5.110;2023-03-22T03:52:06;100716.12;;;8.02;41.23
72330;BME280;60660;52.076;5.110;2023-03-22T03:54:32;100715.84;;;8.42;40.54
72330;BME280;60660;52.076;5.110;2023-03-22T03:56:57;100712.05;;;8.19;41.38
72330;BME280;60660;52.076;5.110;2023-03-22T03:59:23;100709.61;;;8.15;41.35
72330;BME280;60660;52.076;5.110;2023-03-22T04:01:48;100713.07;;;8.75;40.47
72330;BME280;60660;52.076;5.110;2023-03-22T04:04:14;100718.43;;;8.13;40.89
72330;BME280;60660;52.076;5.110;2023-03-22T04:06:39;100714.92;;;9.04;40.01
72330;BME280;60660;52.076;5.110;2023-03-22T04:09:04;100713.15;;;8.73;40.16
72330;BME280;60660;52.076;5.110;2023-03-22T04:11:30;100712.74;;;8.06;40.98
72330;BME280;60660;52.076;5.110;2023-03-22T04:13:56;100707.64;;;8.79;40.34
72330;BME280;60660;52.076;5.110;2023-03-22T04:16:21;100700.92;;;8.21;40.70
72330;BME280;60660;52.076;5.110;2023-03-22T04:18:46;100704.58;;;7.88;41.50
72330;BME280;60660;52.076;5.110;2023-03-22T04:21:12;100694.86;;;8.25;40.69
72330;BME280;60660;52.076;5.110;2023-03-22T04:23:36;100694.00;;;8.14;40.86
72330;BME280;60660;52.076;5.110;2023-03-22T04:26:02;100691.18;;;7.92;40.77
72330;BME280;60660;52.076;5.110;2023-03-22T04:28:27;100687.39;;;7.86;41.28
72330;BME280;60660;52.076;5.110;2023-03-22T04:30:53;100681.05;;;7.93;41.64
72330;BME280;60660;52.076;5.110;2023-03-22T04:33:19;100685.00;;;7.88;41.54
72330;BME280;60660;52.076;5.110;2023-03-22T04:35:44;100678.32;;;7.77;41.70
72330;BME280;60660;52.076;5.110;2023-03-22T04:38:09;100683.46;;;7.41;42.48
72330;BME280;60660;52.076;5.110;2023-03-22T04:40:34;100685.70;;;7.42;42.63
72330;BME280;60660;52.076;5.110;2023-03-22T04:42:59;100684.76;;;7.72;42.16
72330;BME280;60660;52.076;5.110;2023-03-22T04:45:25;100684.18;;;8.64;41.29
72330;BME280;60660;52.076;5.110;2023-03-22T04:47:50;100679.18;;;8.85;39.41
72330;BME280;60660;52.076;5.110;2023-03-22T04:50:16;100676.29;;;9.15;38.91
72330;BME280;60660;52.076;5.110;2023-03-22T04:52:41;100676.23;;;8.75;39.50
72330;BME280;60660;52.076;5.110;2023-03-22T04:55:08;100666.56;;;7.70;41.22
72330;BME280;60660;52.076;5.110;2023-03-22T04:57:32;100666.39;;;8.44;40.07
72330;BME280;60660;52.076;5.110;2023-03-22T04:59:57;100663.37;;;7.53;40.78
72330;BME280;60660;52.076;5.110;2023-03-22T05:02:23;100662.39;;;8.17;41.38
72330;BME280;60660;52.076;5.110;2023-03-22T05:04:49;100659.56;;;7.13;42.64
72330;BME280;60660;52.076;5.110;2023-03-22T05:07:14;100659.14;;;6.93;42.93
72330;BME280;60660;52.076;5.110;2023-03-22T05:09:40;100659.75;;;6.89;43.71
72330;BME280;60660;52.076;5.110;2023-03-22T05:12:06;100657.24;;;6.09;45.12
72330;BME280;60660;52.076;5.110;2023-03-22T05:14:31;100660.18;;;6.58;44.78
72330;BME280;60660;52.076;5.110;2023-03-22T05:16:56;100667.86;;;7.30;42.57
72330;BME280;60660;52.076;5.110;2023-03-22T05:19:21;100665.46;;;7.96;41.27
72330;BME280;60660;52.076;5.110;2023-03-22T05:21:47;100661.53;;;7.54;41.69
72330;BME280;60660;52.076;5.110;2023-03-22T05:24:12;100657.50;;;7.22;42.28
72330;BME280;60660;52.076;5.110;2023-03-22T05:26:37;100659.91;;;6.92;42.82
72330;BME280;60660;52.076;5.110;2023-03-22T05:29:02;100655.88;;;6.97;42.41
72330;BME280;60660;52.076;5.110;2023-03-22T05:31:27;100649.13;;;7.45;42.46
72330;BME280;60660;52.076;5.110;2023-03-22T05:33:53;100646.29;;;7.54;42.21
72330;BME280;60660;52.076;5.110;2023-03-22T05:36:19;100647.87;;;7.09;43.51
72330;BME280;60660;52.076;5.110;2023-03-22T05:38:44;100653.86;;;7.28;42.88
72330;BME280;60660;52.076;5.110;2023-03-22T05:41:09;100652.16;;;7.57;42.33
72330;BME280;60660;52.076;5.110;2023-03-22T05:43:35;100644.42;;;7.58;41.58
72330;BME280;60660;52.076;5.110;2023-03-22T05:46:00;100640.80;;;7.39;42.10
72330;BME280;60660;52.076;5.110;2023-03-22T05:48:25;100634.13;;;7.90;41.48
72330;BME280;60660;52.076;5.110;2023-03-22T05:50:49;100629.16;;;7.68;41.45
72330;BME280;60660;52.076;5.110;2023-03-22T05:53:15;100632.51;;;8.14;41.09
72330;BME280;60660;52.076;5.110;2023-03-22T05:55:41;100628.94;;;8.52;40.72
72330;BME280;60660;52.076;5.110;2023-03-22T05:58:06;100624.27;;;6.99;41.99
72330;BME280;60660;52.076;5.110;2023-03-22T06:00:31;100627.44;;;7.38;42.00
72330;BME280;60660;52.076;5.110;2023-03-22T06:02:57;100626.63;;;7.91;41.26
72330;BME280;60660;52.076;5.110;2023-03-22T06:05:22;100630.20;;;8.99;39.04
72330;BME280;60660;52.076;5.110;2023-03-22T06:07:47;100629.72;;;7.39;40.14
72330;BME280;60660;52.076;5.110;2023-03-22T06:10:14;100633.83;;;7.63;41.28
72330;BME280;60660;52.076;5.110;2023-03-22T06:12:38;100633.25;;;8.08;39.92
72330;BME280;60660;52.076;5.110;2023-03-22T06:15:05;100634.29;;;8.05;39.70
72330;BME280;60660;52.076;5.110;2023-03-22T06:17:29;100629.13;;;7.53;40.31
72330;BME280;60660;52.076;5.110;2023-03-22T06:19:55;100633.49;;;7.36;41.60
72330;BME280;60660;52.076;5.110;2023-03-22T06:22:21;100636.23;;;8.15;40.70
72330;BME280;60660;52.076;5.110;2023-03-22T06:24:46;100633.58;;;7.40;41.01
72330;BME280;60660;52.076;5.110;2023-03-22T06:27:11;100636.59;;;8.13;40.64
72330;BME280;60660;52.076;5.110;2023-03-22T06:29:37;100629.02;;;8.00;40.15
72330;BME280;60660;52.076;5.110;2023-03-22T06:32:04;100636.18;;;7.81;41.30
72330;BME280;60660;52.076;5.110;2023-03-22T06:34:28;100637.33;;;8.17;39.98
72330;BME280;60660;52.076;5.110;2023-03-22T06:36:53;100635.61;;;8.88;39.53
72330;BME280;60660;52.076;5.110;2023-03-22T06:39:18;100637.46;;;7.97;40.29
72330;BME280;60660;52.076;5.110;2023-03-22T06:41:44;100637.83;;;9.16;38.77
72330;BME280;60660;52.076;5.110;2023-03-22T06:44:09;100636.18;;;8.93;38.62
72330;BME280;60660;52.076;5.110;2023-03-22T06:46:34;100638.29;;;9.92;37.43
72330;BME280;60660;52.076;5.110;2023-03-22T06:49:00;100636.21;;;9.94;36.59
72330;BME280;60660;52.076;5.110;2023-03-22T06:51:26;100636.63;;;10.22;36.45
72330;BME280;60660;52.076;5.110;2023-03-22T06:53:50;100635.83;;;10.14;35.50
72330;BME280;60660;52.076;5.110;2023-03-22T06:56:16;100638.47;;;9.71;36.60
72330;BME280;60660;52.076;5.110;2023-03-22T06:58:41;100636.43;;;9.36;37.06
72330;BME280;60660;52.076;5.110;2023-03-22T07:01:06;100637.13;;;8.56;38.49
72330;BME280;60660;52.076;5.110;2023-03-22T07:03:31;100633.97;;;9.15;37.86
72330;BME280;60660;52.076;5.110;2023-03-22T07:06:01;100636.77;;;7.98;39.00
72330;BME280;60660;52.076;5.110;2023-03-22T07:08:23;100635.70;;;8.74;38.69
72330;BME280;60660;52.076;5.110;2023-03-22T07:10:49;100634.86;;;7.79;39.94
72330;BME280;60660;52.076;5.110;2023-03-22T07:13:13;100637.01;;;8.68;38.92
72330;BME280;60660;52.076;5.110;2023-03-22T07:15:38;100630.88;;;8.56;38.98
72330;BME280;60660;52.076;5.110;2023-03-22T07:18:03;100627.87;;;7.61;39.61
72330;BME280;60660;52.076;5.110;2023-03-22T07:20:29;100636.53;;;7.26;41.03
72330;BME280;60660;52.076;5.110;2023-03-22T07:22:54;100627.48;;;7.33;41.08
72330;BME280;60660;52.076;5.110;2023-03-22T07:25:19;100631.95;;;8.16;40.01
72330;BME280;60660;52.076;5.110;2023-03-22T07:27:44;100634.53;;;8.37;39.29
72330;BME280;60660;52.076;5.110;2023-03-22T07:30:10;100627.27;;;8.49;39.19
72330;BME280;60660;52.076;5.110;2023-03-22T07:32:34;100629.95;;;8.62;39.09
72330;BME280;60660;52.076;5.110;2023-03-22T07:35:00;100627.87;;;8.72;39.72
72330;BME280;60660;52.076;5.110;2023-03-22T07:37:26;100625.72;;;8.01;40.11
72330;BME280;60660;52.076;5.110;2023-03-22T07:39:50;100632.30;;;9.24;38.77
72330;BME280;60660;52.076;5.110;2023-03-22T07:42:15;100621.97;;;9.54;38.01
72330;BME280;60660;52.076;5.110;2023-03-22T07:44:41;100621.56;;;10.18;36.46
72330;BME280;60660;52.076;5.110;2023-03-22T07:47:07;100630.29;;;10.11;36.68
72330;BME280;60660;52.076;5.110;2023-03-22T07:49:31;100630.93;;;9.70;36.39
72330;BME280;60660;52.076;5.110;2023-03-22T07:51:57;100625.10;;;8.96;37.47
72330;BME280;60660;52.076;5.110;2023-03-22T07:54:22;100627.84;;;10.05;36.76
72330;BME280;60660;52.076;5.110;2023-03-22T07:56:47;100622.58;;;8.70;38.87
72330;BME280;60660;52.076;5.110;2023-03-22T07:59:12;100621.19;;;10.50;36.86
72330;BME280;60660;52.076;5.110;2023-03-22T08:01:37;100628.50;;;9.23;37.10
72330;BME280;60660;52.076;5.110;2023-03-22T08:04:03;100626.60;;;10.28;35.89
72330;BME280;60660;52.076;5.110;2023-03-22T08:06:28;100630.56;;;9.76;37.26
72330;BME280;60660;52.076;5.110;2023-03-22T08:08:53;100626.93;;;9.69;37.66
72330;BME280;60660;52.076;5.110;2023-03-22T08:11:18;100638.09;;;9.55;37.31
72330;BME280;60660;52.076;5.110;2023-03-22T08:13:44;100631.28;;;8.43;38.98
72330;BME280;60660;52.076;5.110;2023-03-22T08:16:09;100628.95;;;10.37;36.62
72330;BME280;60660;52.076;5.110;2023-03-22T08:18:34;100632.37;;;9.50;37.58
72330;BME280;60660;52.076;5.110;2023-03-22T08:21:00;100630.52;;;9.03;38.54
72330;BME280;60660;52.076;5.110;2023-03-22T08:23:27;100635.54;;;9.83;37.61
72330;BME280;60660;52.076;5.110;2023-03-22T08:25:50;100623.92;;;8.82;38.34
72330;BME280;60660;52.076;5.110;2023-03-22T08:28:16;100628.99;;;9.25;38.48
72330;BME280;60660;52.076;5.110;2023-03-22T08:30:41;100625.82;;;8.37;39.36
72330;BME280;60660;52.076;5.110;2023-03-22T08:33:06;100629.06;;;8.58;39.43
72330;BME280;60660;52.076;5.110;2023-03-22T08:35:31;100631.21;;;9.25;38.44
72330;BME280;60660;52.076;5.110;2023-03-22T08:37:56;100633.67;;;9.03;38.61
72330;BME280;60660;52.076;5.110;2023-03-22T08:40:22;100630.56;;;9.13;38.26
72330;BME280;60660;52.076;5.110;2023-03-22T08:42:47;100628.51;;;9.07;37.85
72330;BME280;60660;52.076;5.110;2023-03-22T08:45:13;100629.62;;;8.24;39.60
72330;BME280;60660;52.076;5.110;2023-03-22T08:47:38;100628.42;;;7.62;40.21
72330;BME280;60660;52.076;5.110;2023-03-22T08:50:05;100634.25;;;8.18;40.17
72330;BME280;60660;52.076;5.110;2023-03-22T08:52:29;100628.36;;;8.48;39.01
72330;BME280;60660;52.076;5.110;2023-03-22T08:54:54;100628.79;;;8.70;38.54
72330;BME280;60660;52.076;5.110;2023-03-22T08:57:19;100628.09;;;8.78;38.66
72330;BME280;60660;52.076;5.110;2023-03-22T08:59:45;100634.21;;;8.82;38.42
72330;BME280;60660;52.076;5.110;2023-03-22T09:02:10;100632.07;;;8.50;39.49
72330;BME280;60660;52.076;5.110;2023-03-22T09:04:35;100634.39;;;8.67;38.81
72330;BME280;60660;52.076;5.110;2023-03-22T09:07:00;100633.00;;;8.45;39.51
72330;BME280;60660;52.076;5.110;2023-03-22T09:09:26;100630.01;;;8.37;40.04
72330;BME280;60660;52.076;5.110;2023-03-22T09:11:51;100633.72;;;7.73;41.37
72330;BME280;60660;52.076;5.110;2023-03-22T09:14:17;100642.52;;;7.87;41.38
72330;BME280;60660;52.076;5.110;2023-03-22T09:16:42;100637.84;;;7.78;42.21
72330;BME280;60660;52.076;5.110;2023-03-22T09:19:08;100636.54;;;8.36;40.40
72330;BME280;60660;52.076;5.110;2023-03-22T09:21:33;100642.85;;;8.22;41.08
72330;BME280;60660;52.076;5.110;2023-03-22T09:23:58;100640.48;;;7.67;42.79
72330;BME280;60660;52.076;5.110;2023-03-22T09:26:23;100637.93;;;6.91;44.68
72330;BME280;60660;52.076;5.110;2023-03-22T09:28:49;100634.39;;;6.69;45.99
72330;BME280;60660;52.076;5.110;2023-03-22T09:31:14;100631.15;;;7.66;44.87
72330;BME280;60660;52.076;5.110;2023-03-22T09:33:39;100621.99;;;7.76;43.91
72330;BME280;60660;52.076;5.110;2023-03-22T09:36:04;100622.23;;;7.41;43.69
72330;BME280;60660;52.076;5.110;2023-03-22T09:38:29;100617.95;;;7.56;43.77
72330;BME280;60660;52.076;5.110;2023-03-22T09:40:57;100631.86;;;8.02;43.44
72330;BME280;60660;52.076;5.110;2023-03-22T09:43:20;100622.35;;;6.22;46.46
72330;BME280;60660;52.076;5.110;2023-03-22T09:45:48;100625.84;;;6.44;46.33
72330;BME280;60660;52.076;5.110;2023-03-22T09:48:15;100620.61;;;6.81;45.71
72330;BME280;60660;52.076;5.110;2023-03-22T09:50:39;100620.65;;;6.77;45.36
72330;BME280;60660;52.076;5.110;2023-03-22T09:53:02;100620.61;;;6.50;47.37
72330;BME280;60660;52.076;5.110;2023-03-22T09:55:33;100618.42;;;6.02;48.59
72330;BME280;60660;52.076;5.110;2023-03-22T09:58:00;100624.26;;;6.47;47.94
72330;BME280;60660;52.076;5.110;2023-03-22T10:00:21;100620.61;;;6.46;47.84
72330;BME280;60660;52.076;5.110;2023-03-22T10:02:51;100619.91;;;7.41;47.06
72330;BME280;60660;52.076;5.110;2023-03-22T10:05:13;100617.43;;;6.57;47.22
72330;BME280;60660;52.076;5.110;2023-03-22T10:07:40;100615.65;;;6.51;47.41
72330;BME280;60660;52.076;5.110;2023-03-22T10:10:06;100618.76;;;7.62;45.85
72330;BME280;60660;52.076;5.110;2023-03-22T10:12:27;100612.33;;;7.12;45.49
72330;BME280;60660;52.076;5.110;2023-03-22T10:14:55;100616.86;;;8.14;44.53
72330;BME280;60660;52.076;5.110;2023-03-22T10:17:18;100618.46;;;7.07;46.08
72330;BME280;60660;52.076;5.110;2023-03-22T10:19:49;100628.40;;;7.18;46.36
72330;BME280;60660;52.076;5.110;2023-03-22T10:22:10;100612.93;;;7.33;45.67
72330;BME280;60660;52.076;5.110;2023-03-22T10:24:34;100623.58;;;6.67;47.27
72330;BME280;60660;52.076;5.110;2023-03-22T10:26:58;100617.57;;;6.78;47.69
72330;BME280;60660;52.076;5.110;2023-03-22T10:29:29;100630.15;;;7.14;46.47
72330;BME280;60660;52.076;5.110;2023-03-22T10:31:49;100619.91;;;6.91;47.48
72330;BME280;60660;52.076;5.110;2023-03-22T10:34:19;100641.80;;;6.66;47.20
72330;BME280;60660;52.076;5.110;2023-03-22T10:36:40;100627.48;;;6.90;47.28
72330;BME280;60660;52.076;5.110;2023-03-22T10:39:09;100617.76;;;6.67;46.99
72330;BME280;60660;52.076;5.110;2023-03-22T10:41:31;100629.18;;;7.05;46.92
72330;BME280;60660;52.076;5.110;2023-03-22T10:43:57;100621.80;;;6.69;47.36
72330;BME280;60660;52.076;5.110;2023-03-22T10:46:23;100615.28;;;6.64;47.98
72330;BME280;60660;52.076;5.110;2023-03-22T10:48:47;100617.16;;;6.56;48.42
72330;BME280;60660;52.076;5.110;2023-03-22T10:51:19;100610.34;;;7.55;46.01
72330;BME280;60660;52.076;5.110;2023-03-22T10:53:37;100604.68;;;6.72;47.35
72330;BME280;60660;52.076;5.110;2023-03-22T10:56:02;100604.38;;;8.52;45.13
72330;BME280;60660;52.076;5.110;2023-03-22T10:58:29;100604.98;;;7.30;47.41
72330;BME280;60660;52.076;5.110;2023-03-22T11:00:53;100602.44;;;7.94;46.53
72330;BME280;60660;52.076;5.110;2023-03-22T11:03:27;100600.42;;;7.99;46.42
72330;BME280;60660;52.076;5.110;2023-03-22T11:05:42;100599.99;;;8.36;45.04
72330;BME280;60660;52.076;5.110;2023-03-22T11:08:13;100606.06;;;8.05;45.25
72330;BME280;60660;52.076;5.110;2023-03-22T11:10:33;100596.23;;;6.85;47.93
72330;BME280;60660;52.076;5.110;2023-03-22T11:13:13;100597.49;;;7.40;46.82
72330;BME280;60660;52.076;5.110;2023-03-22T11:15:27;100592.84;;;7.69;44.99
72330;BME280;60660;52.076;5.110;2023-03-22T11:17:49;100593.13;;;8.07;46.44
72330;BME280;60660;52.076;5.110;2023-03-22T11:20:15;100600.58;;;8.03;45.27
72330;BME280;60660;52.076;5.110;2023-03-22T11:22:41;100591.89;;;7.63;45.59
72330;BME280;60660;52.076;5.110;2023-03-22T11:25:13;100600.23;;;7.18;46.97
72330;BME280;60660;52.076;5.110;2023-03-22T11:27:32;100584.31;;;6.19;48.71
72330;BME280;60660;52.076;5.110;2023-03-22T11:29:58;100603.96;;;7.72;46.06
72330;BME280;60660;52.076;5.110;2023-03-22T11:32:26;100605.09;;;8.87;43.81
72330;BME280;60660;52.076;5.110;2023-03-22T11:34:48;100599.81;;;8.11;44.08
72330;BME280;60660;52.076;5.110;2023-03-22T11:37:15;100606.71;;;8.87;42.68
72330;BME280;60660;52.076;5.110;2023-03-22T11:39:45;100611.91;;;7.37;45.29
72330;BME280;60660;52.076;5.110;2023-03-22T11:42:04;100617.70;;;7.06;47.21
72330;BME280;60660;52.076;5.110;2023-03-22T11:44:31;100620.54;;;6.18;48.31
72330;BME280;60660;52.076;5.110;2023-03-22T11:46:55;100622.89;;;6.96;47.14
72330;BME280;60660;52.076;5.110;2023-03-22T11:49:20;100638.78;;;6.79;46.45
72330;BME280;60660;52.076;5.110;2023-03-22T11:51:44;100637.22;;;7.45;45.37
72330;BME280;60660;52.076;5.110;2023-03-22T11:54:14;100643.01;;;7.58;45.05
72330;BME280;60660;52.076;5.110;2023-03-22T11:56:39;100640.38;;;8.52;42.79
72330;BME280;60660;52.076;5.110;2023-03-22T11:59:06;100635.57;;;7.73;43.49
72330;BME280;60660;52.076;5.110;2023-03-22T12:01:33;100633.28;;;7.69;44.49
72330;BME280;60660;52.076;5.110;2023-03-22T12:03:54;100633.19;;;8.31;43.31
72330;BME280;60660;52.076;5.110;2023-03-22T12:06:20;100628.32;;;7.46;44.28
72330;BME280;60660;52.076;5.110;2023-03-22T12:08:45;100628.90;;;7.41;45.13
72330;BME280;60660;52.076;5.110;2023-03-22T12:11:14;100621.96;;;7.95;45.06
72330;BME280;60660;52.076;5.110;2023-03-22T12:13:41;100625.85;;;6.85;45.57
72330;BME280;60660;52.076;5.110;2023-03-22T12:16:02;100616.85;;;7.66;44.60
72330;BME280;60660;52.076;5.110;2023-03-22T12:18:27;100621.34;;;7.76;45.15
72330;BME280;60660;52.076;5.110;2023-03-22T12:20:53;100626.19;;;7.25;45.06
72330;BME280;60660;52.076;5.110;2023-03-22T12:23:16;100627.36;;;8.44;43.70
72330;BME280;60660;52.076;5.110;2023-03-22T12:25:41;100620.27;;;8.27;43.46
72330;BME280;60660;52.076;5.110;2023-03-22T12:28:08;100625.30;;;8.22;43.97
72330;BME280;60660;52.076;5.110;2023-03-22T12:30:36;100626.83;;;8.60;43.35
72330;BME280;60660;52.076;5.110;2023-03-22T12:33:00;100621.28;;;7.88;43.80
72330;BME280;60660;52.076;5.110;2023-03-22T12:35:25;100619.46;;;8.41;43.50
72330;BME280;60660;52.076;5.110;2023-03-22T12:37:50;100616.80;;;8.11;43.62
72330;BME280;60660;52.076;5.110;2023-03-22T12:40:18;100616.97;;;8.41;42.98
72330;BME280;60660;52.076;5.110;2023-03-22T12:42:44;100607.02;;;7.73;44.80
72330;BME280;60660;52.076;5.110;2023-03-22T12:45:05;100607.56;;;8.39;43.65
72330;BME280;60660;52.076;5.110;2023-03-22T12:47:31;100610.15;;;7.94;43.67
72330;BME280;60660;52.076;5.110;2023-03-22T12:49:57;100607.38;;;8.58;43.45
72330;BME280;60660;52.076;5.110;2023-03-22T12:52:22;100603.55;;;8.31;43.89
72330;BME280;60660;52.076;5.110;2023-03-22T12:54:45;100601.34;;;7.98;44.64